createdAt,value
2023-09-10T00:02:26.091Z,97079.80
2023-09-10T00:04:54.120Z,97078.60
2023-09-10T00:07:22.152Z,97085.00
2023-09-10T00:09:50.252Z,97082.80
2023-09-10T00:12:18.178Z,97080.60
2023-09-10T00:14:46.932Z,97081.40
2023-09-10T00:17:15.020Z,97076.00
2023-09-10T00:19:43.176Z,97076.80
2023-09-10T00:22:12.023Z,97079.80
2023-09-10T00:24:40.089Z,97081.40
2023-09-10T00:27:08.163Z,97081.20
2023-09-10T00:29:36.188Z,97081.80
2023-09-10T00:32:05.069Z,97081.40
2023-09-10T00:34:34.202Z,97079.40
2023-09-10T00:37:02.330Z,97074.60
2023-09-10T00:39:30.362Z,97076.40
2023-09-10T00:41:58.511Z,97076.20
2023-09-10T00:44:27.087Z,97074.40
2023-09-10T00:46:55.105Z,97068.60
2023-09-10T00:49:23.243Z,97068.80
2023-09-10T00:51:51.615Z,97070.60
2023-09-10T00:54:19.714Z,97074.00
2023-09-10T00:56:47.687Z,97071.60
2023-09-10T00:59:15.874Z,97070.00
2023-09-10T01:01:44.016Z,97073.00
2023-09-10T01:04:12.199Z,97073.00
2023-09-10T01:06:40.340Z,97073.20
2023-09-10T01:09:08.947Z,97077.60
2023-09-10T01:11:50.149Z,97081.20
2023-09-10T01:14:56.255Z,97076.00
2023-09-10T01:17:47.411Z,97082.60
2023-09-10T01:20:27.712Z,97084.80
2023-09-10T01:23:07.690Z,97079.60
2023-09-10T01:25:36.181Z,97076.20
2023-09-10T01:28:04.691Z,97070.80
2023-09-10T01:30:33.159Z,97074.00
2023-09-10T01:33:21.475Z,97074.20
2023-09-10T01:36:03.500Z,97078.80
2023-09-10T01:38:58.471Z,97078.20
2023-09-10T01:41:26.961Z,97074.00
2023-09-10T01:43:55.191Z,97071.00
2023-09-10T01:46:23.745Z,97070.80
2023-09-10T01:48:51.907Z,97074.80
2023-09-10T01:51:20.420Z,97071.60
2023-09-10T01:53:48.647Z,97067.40
2023-09-10T01:56:17.646Z,97071.00
2023-09-10T01:58:45.683Z,97069.20
2023-09-10T02:01:13.766Z,97069.60
2023-09-10T02:03:42.400Z,97069.40
2023-09-10T02:06:10.556Z,97066.20
2023-09-10T02:08:38.752Z,97068.00
2023-09-10T02:11:07.288Z,97066.60
2023-09-10T02:13:35.776Z,97069.80
2023-09-10T02:16:03.981Z,97063.20
2023-09-10T02:18:32.973Z,97071.20
2023-09-10T02:21:00.984Z,97074.00
2023-09-10T02:23:29.096Z,97072.40
2023-09-10T02:25:57.164Z,97069.40
2023-09-10T02:28:26.318Z,97070.60
2023-09-10T02:30:54.399Z,97073.60
2023-09-10T02:33:22.804Z,97075.60
2023-09-10T02:35:51.185Z,97074.00
2023-09-10T02:38:19.446Z,97068.40
2023-09-10T02:40:47.497Z,97070.00
2023-09-10T02:43:15.580Z,97074.40
2023-09-10T02:45:43.757Z,97073.60
2023-09-10T02:48:11.869Z,97073.20
2023-09-10T02:50:40.309Z,97069.20
2023-09-10T02:53:08.464Z,97066.40
2023-09-10T02:55:36.662Z,97065.60
2023-09-10T02:58:05.179Z,97067.00
2023-09-10T03:00:33.324Z,97067.40
2023-09-10T03:03:01.515Z,97077.00
2023-09-10T03:05:33.075Z,97064.00
2023-09-10T03:08:01.308Z,97073.00
2023-09-10T03:10:29.626Z,97068.00
2023-09-10T03:12:57.767Z,97064.40
2023-09-10T03:15:25.853Z,97064.00
2023-09-10T03:17:54.067Z,97066.20
2023-09-10T03:20:22.191Z,97069.80
2023-09-10T03:22:52.907Z,97068.00
2023-09-10T03:25:21.045Z,97061.00
2023-09-10T03:27:49.633Z,97053.00
2023-09-10T03:30:18.443Z,97069.40
2023-09-10T03:32:51.017Z,97068.20
2023-09-10T03:35:19.487Z,97063.60
2023-09-10T03:37:48.145Z,97066.40
2023-09-10T03:40:16.421Z,97061.80
2023-09-10T03:42:44.547Z,97058.20
2023-09-10T03:45:12.761Z,97063.00
2023-09-10T03:47:41.113Z,97066.20
2023-09-10T03:50:12.271Z,97055.80
2023-09-10T03:52:40.892Z,97065.40
2023-09-10T03:55:09.334Z,97053.40
2023-09-10T03:57:37.871Z,97055.80
2023-09-10T04:00:07.884Z,97057.80
2023-09-10T04:02:40.214Z,97055.60
2023-09-10T04:05:11.642Z,97055.40
2023-09-10T04:07:40.012Z,97057.60
2023-09-10T04:10:09.041Z,97058.60
2023-09-10T04:12:37.554Z,97059.80
2023-09-10T04:15:06.461Z,97063.40
2023-09-10T04:17:34.752Z,97055.60
2023-09-10T04:20:08.616Z,97058.40
2023-09-10T04:22:36.704Z,97061.80
2023-09-10T04:25:05.309Z,97070.20
2023-09-10T04:27:33.309Z,97064.00
2023-09-10T04:30:02.839Z,97065.20
2023-09-10T04:32:31.213Z,97058.60
2023-09-10T04:34:59.394Z,97069.20
2023-09-10T04:37:28.093Z,97066.60
2023-09-10T04:39:56.240Z,97066.80
2023-09-10T04:42:24.265Z,97063.20
2023-09-10T04:44:52.420Z,97064.60
2023-09-10T04:47:20.883Z,97065.40
2023-09-10T04:49:49.395Z,97069.00
2023-09-10T04:52:17.557Z,97067.20
2023-09-10T04:54:45.851Z,97072.00
2023-09-10T04:57:13.943Z,97070.60
2023-09-10T04:59:42.278Z,97072.00
2023-09-10T05:02:10.432Z,97079.00
2023-09-10T05:04:39.051Z,97075.80
2023-09-10T05:07:07.362Z,97072.80
2023-09-10T05:09:35.525Z,97078.60
2023-09-10T05:12:04.435Z,97073.40
2023-09-10T05:14:32.508Z,97082.00
2023-09-10T05:17:01.253Z,97074.80
2023-09-10T05:19:29.568Z,97079.80
2023-09-10T05:21:58.831Z,97076.60
2023-09-10T05:24:27.223Z,97077.20
2023-09-10T05:26:55.379Z,97084.20
2023-09-10T05:29:23.546Z,97083.40
2023-09-10T05:31:52.005Z,97085.20
2023-09-10T05:34:20.082Z,97085.40
2023-09-10T05:36:49.716Z,97083.80
2023-09-10T05:39:17.812Z,97088.20
2023-09-10T05:41:46.033Z,97089.20
2023-09-10T05:44:14.180Z,97093.00
2023-09-10T05:46:42.993Z,97093.60
2023-09-10T05:49:12.129Z,97093.60
2023-09-10T05:51:40.187Z,97095.60
2023-09-10T05:54:08.313Z,97093.40
2023-09-10T05:56:36.841Z,97101.20
2023-09-10T05:59:05.226Z,97095.00
2023-09-10T06:01:33.341Z,97100.60
2023-09-10T06:04:01.757Z,97104.80
2023-09-10T06:06:30.000Z,97101.00
2023-09-10T06:08:58.329Z,97104.60
2023-09-10T06:11:26.399Z,97107.00
2023-09-10T06:13:54.608Z,97106.20
2023-09-10T06:16:22.738Z,97110.20
2023-09-10T06:18:52.371Z,97110.40
2023-09-10T06:21:20.802Z,97107.80
2023-09-10T06:23:49.587Z,97116.40
2023-09-10T06:26:17.952Z,97118.40
2023-09-10T06:28:46.322Z,97116.40
2023-09-10T06:31:14.497Z,97119.40
2023-09-10T06:33:42.755Z,97115.80
2023-09-10T06:36:11.260Z,97113.60
2023-09-10T06:38:39.615Z,97117.80
2023-09-10T06:41:07.928Z,97114.60
2023-09-10T06:43:36.356Z,97110.20
2023-09-10T06:46:10.669Z,97117.20
2023-09-10T06:48:38.946Z,97117.00
2023-09-10T06:51:07.365Z,97116.80
2023-09-10T06:53:35.827Z,97118.80
2023-09-10T06:56:04.153Z,97122.20
2023-09-10T06:58:32.313Z,97122.80
2023-09-10T07:01:07.442Z,97130.80
2023-09-10T07:03:36.299Z,97131.40
2023-09-10T07:06:05.745Z,97130.40
2023-09-10T07:08:36.320Z,97133.40
2023-09-10T07:11:04.830Z,97134.80
2023-09-10T07:13:32.902Z,97133.80
2023-09-10T07:16:01.222Z,97138.00
2023-09-10T07:18:34.424Z,97135.40
2023-09-10T07:21:02.843Z,97140.40
2023-09-10T07:23:31.007Z,97138.80
2023-09-10T07:25:59.167Z,97140.80
2023-09-10T07:28:27.380Z,97138.40
2023-09-10T07:30:55.649Z,97137.40
2023-09-10T07:33:23.844Z,97142.20
2023-09-10T07:35:51.784Z,97139.40
2023-09-10T07:38:19.989Z,97144.40
2023-09-10T07:40:48.163Z,97149.20
2023-09-10T07:43:16.276Z,97141.60
2023-09-10T07:45:46.631Z,97149.80
2023-09-10T07:48:14.900Z,97144.20
2023-09-10T07:50:43.699Z,97149.80
2023-09-10T07:53:11.855Z,97144.00
2023-09-10T07:55:40.156Z,97144.60
2023-09-10T07:58:08.210Z,97146.60
2023-09-10T08:00:37.630Z,97143.40
2023-09-10T08:03:07.762Z,97140.20
2023-09-10T08:05:36.400Z,97144.40
2023-09-10T08:08:04.842Z,97141.60
2023-09-10T08:10:33.721Z,97136.80
2023-09-10T08:13:04.511Z,97136.80
2023-09-10T08:15:32.924Z,97133.60
2023-09-10T08:18:01.235Z,97132.60
2023-09-10T08:20:29.716Z,97134.00
2023-09-10T08:22:57.979Z,97134.00
2023-09-10T08:25:26.128Z,97130.80
2023-09-10T08:27:54.176Z,97128.00
2023-09-10T08:30:22.577Z,97134.20
2023-09-10T08:32:51.312Z,97135.20
2023-09-10T08:35:19.762Z,97131.80
2023-09-10T08:37:48.091Z,97135.20
2023-09-10T08:40:16.810Z,97131.60
2023-09-10T08:42:54.310Z,97135.40
2023-09-10T08:45:22.858Z,97136.00
2023-09-10T08:47:51.035Z,97134.40
2023-09-10T08:50:19.355Z,97132.40
2023-09-10T08:52:49.677Z,97133.80
2023-09-10T08:55:17.941Z,97135.00
2023-09-10T08:57:46.741Z,97132.80
2023-09-10T09:00:15.001Z,97133.40
2023-09-10T09:02:47.111Z,97130.40
2023-09-10T09:05:15.311Z,97131.20
2023-09-10T09:07:47.410Z,97129.60
2023-09-10T09:10:20.209Z,97132.80
2023-09-10T09:12:50.006Z,97136.00
2023-09-10T09:15:18.067Z,97132.60
2023-09-10T09:17:46.218Z,97136.00
2023-09-10T09:20:14.775Z,97132.40
2023-09-10T09:22:43.607Z,97135.60
2023-09-10T09:25:11.795Z,97139.00
2023-09-10T09:27:39.939Z,97134.60
2023-09-10T09:30:08.434Z,97134.40
2023-09-10T09:32:37.584Z,97133.40
2023-09-10T09:35:07.021Z,97131.20
2023-09-10T09:37:36.088Z,97131.40
2023-09-10T09:40:05.240Z,97127.40
2023-09-10T09:42:33.360Z,97132.40
2023-09-10T09:45:02.557Z,97127.00
2023-09-10T09:47:33.819Z,97131.40
2023-09-10T09:50:02.160Z,97129.20
2023-09-10T09:52:30.354Z,97125.00
2023-09-10T09:54:58.451Z,97121.60
2023-09-10T09:57:26.676Z,97121.20
2023-09-10T09:59:54.930Z,97124.80
2023-09-10T10:02:23.082Z,97122.40
2023-09-10T10:04:51.346Z,97119.80
2023-09-10T10:07:24.697Z,97121.20
2023-09-10T10:09:56.247Z,97117.20
2023-09-10T10:12:24.335Z,97118.00
2023-09-10T10:14:52.458Z,97115.20
2023-09-10T10:17:20.650Z,97112.00
2023-09-10T10:19:48.770Z,97114.40
2023-09-10T10:22:16.876Z,97110.00
2023-09-10T10:24:45.861Z,97107.40
2023-09-10T10:27:16.868Z,97107.80
2023-09-10T10:29:44.939Z,97106.20
2023-09-10T10:32:36.256Z,97107.00
2023-09-10T10:35:08.366Z,97106.20
2023-09-10T10:38:00.452Z,97105.00
2023-09-10T10:40:40.419Z,97099.60
2023-09-10T10:43:10.586Z,97102.00
2023-09-10T10:45:38.797Z,97101.20
2023-09-10T10:48:14.939Z,97096.00
2023-09-10T10:50:43.683Z,97097.80
2023-09-10T10:53:19.059Z,97091.60
2023-09-10T10:55:57.806Z,97097.80
2023-09-10T10:58:25.982Z,97094.60
2023-09-10T11:00:55.350Z,97094.20
2023-09-10T11:03:23.971Z,97091.00
2023-09-10T11:05:55.689Z,97089.40
2023-09-10T11:08:30.728Z,97092.00
2023-09-10T11:10:59.665Z,97087.40
2023-09-10T11:13:27.738Z,97082.40
2023-09-10T11:16:05.399Z,97080.00
2023-09-10T11:18:37.481Z,97078.00
2023-09-10T11:21:06.926Z,97080.40
2023-09-10T11:23:35.931Z,97077.80
2023-09-10T11:26:16.189Z,97077.60
2023-09-10T11:28:45.901Z,97076.60
2023-09-10T11:31:38.537Z,97079.40
2023-09-10T11:34:19.097Z,97081.00
2023-09-10T11:37:03.754Z,97075.80
2023-09-10T11:39:33.036Z,97072.40
2023-09-10T11:42:03.240Z,97069.40
2023-09-10T11:44:31.637Z,97072.40
2023-09-10T11:46:59.971Z,97066.60
2023-09-10T11:49:28.218Z,97063.20
2023-09-10T11:51:59.324Z,97060.00
2023-09-10T11:54:28.016Z,97061.20
2023-09-10T11:56:59.656Z,97057.80
2023-09-10T11:59:31.632Z,97059.20
2023-09-10T12:02:00.342Z,97056.80
2023-09-10T12:04:37.778Z,97057.20
2023-09-10T12:07:05.945Z,97050.60
2023-09-10T12:09:34.043Z,97054.80
2023-09-10T12:12:15.235Z,97052.60
2023-09-10T12:14:43.337Z,97055.60
2023-09-10T12:17:11.524Z,97049.60
2023-09-10T12:19:39.662Z,97054.40
2023-09-10T12:22:10.887Z,97051.80
2023-09-10T12:24:42.333Z,97055.80
2023-09-10T12:27:12.757Z,97056.60
2023-09-10T12:29:41.608Z,97055.80
2023-09-10T12:32:10.107Z,97051.20
2023-09-10T12:34:38.793Z,97045.60
2023-09-10T12:37:06.916Z,97047.00
2023-09-10T12:39:35.058Z,97044.40
2023-09-10T12:42:03.466Z,97046.20
2023-09-10T12:44:32.503Z,97046.40
2023-09-10T12:47:01.010Z,97044.00
2023-09-10T12:49:29.487Z,97039.40
2023-09-10T12:51:57.526Z,97039.00
2023-09-10T12:54:25.560Z,97040.60
2023-09-10T12:56:53.627Z,97035.00
2023-09-10T12:59:22.293Z,97033.20
2023-09-10T13:01:51.175Z,97033.00
2023-09-10T13:04:19.779Z,97027.40
2023-09-10T13:06:48.202Z,97023.60
2023-09-10T13:09:16.231Z,97028.20
2023-09-10T13:11:44.289Z,97027.40
2023-09-10T13:14:12.417Z,97027.40
2023-09-10T13:16:40.527Z,97025.60
2023-09-10T13:19:09.176Z,97026.00
2023-09-10T13:21:37.348Z,97023.00
2023-09-10T13:24:05.621Z,97025.80
2023-09-10T13:26:33.802Z,97023.00
2023-09-10T13:29:01.916Z,97024.20
2023-09-10T13:31:30.017Z,97028.60
2023-09-10T13:33:58.028Z,97026.80
2023-09-10T13:36:27.188Z,97028.40
2023-09-10T13:38:55.430Z,97025.40
2023-09-10T13:41:24.059Z,97021.80
2023-09-10T13:43:52.648Z,97023.60
2023-09-10T13:46:20.672Z,97023.40
2023-09-10T13:48:49.344Z,97019.40
2023-09-10T13:51:17.522Z,97025.40
2023-09-10T13:53:45.913Z,97025.80
2023-09-10T13:56:14.023Z,97024.40
2023-09-10T13:58:42.150Z,97028.40
2023-09-10T14:01:11.160Z,97026.00
2023-09-10T14:03:39.913Z,97025.60
2023-09-10T14:06:10.266Z,97022.60
2023-09-10T14:08:39.093Z,97015.40
2023-09-10T14:11:07.630Z,97013.40
2023-09-10T14:13:35.770Z,97007.60
2023-09-10T14:16:03.950Z,97010.60
2023-09-10T14:18:33.259Z,97013.80
2023-09-10T14:21:01.250Z,97007.20
2023-09-10T14:23:29.668Z,97010.20
2023-09-10T14:25:58.578Z,97011.20
2023-09-10T14:28:26.905Z,97007.20
2023-09-10T14:30:55.232Z,97004.80
2023-09-10T14:33:24.608Z,97008.00
2023-09-10T14:35:53.676Z,97004.20
2023-09-10T14:38:21.862Z,97001.20
2023-09-10T14:40:49.912Z,96995.60
2023-09-10T14:43:18.068Z,97002.20
2023-09-10T14:45:46.256Z,97002.20
2023-09-10T14:48:14.656Z,96996.80
2023-09-10T14:50:42.786Z,96993.00
2023-09-10T14:53:10.992Z,96991.00
2023-09-10T14:55:39.143Z,96985.40
2023-09-10T14:58:09.387Z,96984.20
2023-09-10T15:00:39.063Z,96981.40
2023-09-10T15:03:07.323Z,96982.20
2023-09-10T15:05:35.853Z,96980.40
2023-09-10T15:08:05.183Z,96979.60
2023-09-10T15:10:33.325Z,96977.40
2023-09-10T15:13:02.022Z,96978.40
2023-09-10T15:15:30.286Z,96977.00
2023-09-10T15:17:58.396Z,96971.20
2023-09-10T15:20:27.213Z,96973.00
2023-09-10T15:22:55.534Z,96968.00
2023-09-10T15:25:23.791Z,96967.00
2023-09-10T15:27:51.989Z,96969.00
2023-09-10T15:30:20.100Z,96970.20
2023-09-10T15:32:48.331Z,96968.00
2023-09-10T15:35:16.560Z,96966.60
2023-09-10T15:37:44.736Z,96963.80
2023-09-10T15:40:12.928Z,96963.40
2023-09-10T15:42:40.929Z,96958.60
2023-09-10T15:45:09.860Z,96964.60
2023-09-10T15:47:38.012Z,96964.60
2023-09-10T15:50:07.137Z,96966.20
2023-09-10T15:52:35.408Z,96964.00
2023-09-10T15:55:05.138Z,96967.20
2023-09-10T15:57:33.226Z,96970.60
2023-09-10T16:00:01.401Z,96970.00
2023-09-10T16:02:32.944Z,96972.80
2023-09-10T16:05:01.419Z,96972.80
2023-09-10T16:07:29.481Z,96965.40
2023-09-10T16:09:57.822Z,96971.40
2023-09-10T16:12:25.997Z,96967.20
2023-09-10T16:14:54.049Z,96968.00
2023-09-10T16:17:22.186Z,96965.20
2023-09-10T16:19:51.299Z,96968.00
2023-09-10T16:22:30.008Z,96963.40
2023-09-10T16:24:58.438Z,96967.00
2023-09-10T16:27:26.650Z,96970.40
2023-09-10T16:29:55.244Z,96966.20
2023-09-10T16:32:23.383Z,96960.80
2023-09-10T16:34:51.578Z,96966.20
2023-09-10T16:37:19.787Z,96959.80
2023-09-10T16:39:47.873Z,96962.60
2023-09-10T16:42:16.023Z,96961.40
2023-09-10T16:44:44.232Z,96958.60
2023-09-10T16:47:12.295Z,96958.20
2023-09-10T16:49:41.286Z,96960.80
2023-09-10T16:52:09.304Z,96959.80
2023-09-10T16:54:37.395Z,96956.40
2023-09-10T16:57:05.660Z,96960.00
2023-09-10T16:59:33.921Z,96958.00
2023-09-10T17:02:02.119Z,96958.40
2023-09-10T17:04:31.009Z,96957.60
2023-09-10T17:06:58.986Z,96955.20
2023-09-10T17:09:27.017Z,96952.60
2023-09-10T17:11:55.202Z,96952.20
2023-09-10T17:14:23.261Z,96954.00
2023-09-10T17:16:51.449Z,96953.00
2023-09-10T17:19:19.465Z,96956.60
2023-09-10T17:21:47.642Z,96960.20
2023-09-10T17:24:15.989Z,96961.60
2023-09-10T17:26:44.152Z,96959.20
2023-09-10T17:29:12.282Z,96960.40
2023-09-10T17:31:40.380Z,96959.00
2023-09-10T17:34:08.406Z,96962.20
2023-09-10T17:36:36.579Z,96965.80
2023-09-10T17:39:05.039Z,96966.80
2023-09-10T17:41:33.193Z,96970.40
2023-09-10T17:44:03.658Z,96974.00
2023-09-10T17:46:33.606Z,96970.40
2023-09-10T17:49:01.716Z,96966.80
2023-09-10T17:51:29.921Z,96968.00
2023-09-10T17:53:58.157Z,96971.40
2023-09-10T17:56:26.425Z,96970.20
2023-09-10T17:58:55.647Z,96974.40
2023-09-10T18:01:26.648Z,96976.00
2023-09-10T18:03:55.094Z,96976.20
2023-09-10T18:06:23.578Z,96977.20
2023-09-10T18:08:51.756Z,96974.40
2023-09-10T18:11:19.930Z,96975.40
2023-09-10T18:13:50.963Z,96971.60
2023-09-10T18:16:19.093Z,96973.80
2023-09-10T18:18:49.730Z,96977.00
2023-09-10T18:21:17.849Z,96968.60
2023-09-10T18:23:46.065Z,96968.00
2023-09-10T18:26:14.114Z,96974.20
2023-09-10T18:28:42.712Z,96970.20
2023-09-10T18:31:10.826Z,96973.20
2023-09-10T18:33:39.237Z,96972.20
2023-09-10T18:36:07.622Z,96968.40
2023-09-10T18:38:41.611Z,96968.00
2023-09-10T18:41:09.702Z,96967.80
2023-09-10T18:43:38.099Z,96970.00
2023-09-10T18:46:06.722Z,96974.20
2023-09-10T18:48:34.889Z,96972.20
2023-09-10T18:51:04.192Z,96975.40
2023-09-10T18:53:32.842Z,96977.00
2023-09-10T18:56:01.031Z,96977.80
2023-09-10T18:58:31.129Z,96980.20
2023-09-10T19:01:02.343Z,96974.00
2023-09-10T19:03:30.512Z,96975.60
2023-09-10T19:05:59.898Z,96978.00
2023-09-10T19:08:28.727Z,96981.60
2023-09-10T19:10:57.584Z,96988.80
2023-09-10T19:13:25.872Z,96990.20
2023-09-10T19:15:54.184Z,96989.00
2023-09-10T19:18:22.322Z,96985.20
2023-09-10T19:20:50.862Z,96985.40
2023-09-10T19:23:18.956Z,96985.40
2023-09-10T19:25:47.417Z,96983.80
2023-09-10T19:28:17.777Z,96985.40
2023-09-10T19:30:45.998Z,96988.20
2023-09-10T19:33:14.114Z,96985.60
2023-09-10T19:35:42.305Z,96982.40
2023-09-10T19:38:10.426Z,96984.80
2023-09-10T19:40:38.457Z,96982.40
2023-09-10T19:43:06.887Z,96986.80
2023-09-10T19:45:34.914Z,96984.80
2023-09-10T19:48:05.280Z,96988.20
2023-09-10T19:50:33.305Z,96989.60
2023-09-10T19:53:01.312Z,96986.00
2023-09-10T19:55:29.456Z,96989.80
2023-09-10T19:57:57.625Z,96992.80
2023-09-10T20:00:26.997Z,96994.60
2023-09-10T20:02:55.237Z,96995.40
2023-09-10T20:05:23.712Z,96990.40
2023-09-10T20:07:51.835Z,96985.60
2023-09-10T20:10:21.879Z,96984.80
2023-09-10T20:12:50.268Z,96987.20
2023-09-10T20:15:18.402Z,96981.00
2023-09-10T20:17:46.558Z,96979.00
2023-09-10T20:20:15.214Z,96984.00
2023-09-10T20:22:43.877Z,96981.00
2023-09-10T20:25:11.810Z,96981.20
2023-09-10T20:27:41.113Z,96983.00
2023-09-10T20:30:09.493Z,96972.20
2023-09-10T20:32:37.685Z,96975.80
2023-09-10T20:35:06.559Z,96975.40
2023-09-10T20:37:34.651Z,96973.20
2023-09-10T20:40:04.561Z,96969.80
2023-09-10T20:42:32.927Z,96969.20
2023-09-10T20:45:01.166Z,96966.20
2023-09-10T20:47:29.788Z,96965.40
2023-09-10T20:49:58.055Z,96965.80
2023-09-10T20:52:26.667Z,96968.20
2023-09-10T20:54:55.970Z,96967.00
2023-09-10T20:57:24.024Z,96962.40
2023-09-10T20:59:52.165Z,96963.80
2023-09-10T21:02:21.520Z,96964.60
2023-09-10T21:04:49.739Z,96967.00
2023-09-10T21:07:18.347Z,96964.40
2023-09-10T21:09:46.576Z,96960.20
2023-09-10T21:12:14.607Z,96964.20
2023-09-10T21:14:44.013Z,96965.40
2023-09-10T21:17:13.186Z,96963.20
2023-09-10T21:19:41.462Z,96961.20
2023-09-10T21:22:09.478Z,96960.20
2023-09-10T21:24:37.956Z,96951.40
2023-09-10T21:27:06.109Z,96956.00
2023-09-10T21:29:36.730Z,96950.40
2023-09-10T21:32:05.436Z,96942.00
2023-09-10T21:34:33.429Z,96939.60
2023-09-10T21:37:01.557Z,96944.60
2023-09-10T21:39:29.678Z,96946.20
2023-09-10T21:41:57.683Z,96946.60
2023-09-10T21:44:25.683Z,96948.40
2023-09-10T21:46:53.988Z,96952.00
2023-09-10T21:49:25.640Z,96946.00
2023-09-10T21:51:53.908Z,96940.20
2023-09-10T21:54:25.575Z,96940.60
2023-09-10T21:56:53.659Z,96939.40
2023-09-10T21:59:21.773Z,96942.20
2023-09-10T22:01:49.854Z,96938.20
2023-09-10T22:04:17.980Z,96940.20
2023-09-10T22:06:46.201Z,96936.40
2023-09-10T22:09:14.242Z,96937.60
2023-09-10T22:11:42.219Z,96940.20
2023-09-10T22:14:10.510Z,96940.40
2023-09-10T22:16:40.212Z,96938.40
2023-09-10T22:19:09.639Z,96940.20
2023-09-10T22:21:38.152Z,96936.60
2023-09-10T22:24:06.454Z,96939.00
2023-09-10T22:26:34.541Z,96944.60
2023-09-10T22:29:02.836Z,96940.80
2023-09-10T22:31:31.413Z,96941.00
2023-09-10T22:33:59.498Z,96936.80
2023-09-10T22:36:37.520Z,96931.60
2023-09-10T22:39:06.550Z,96934.00
2023-09-10T22:41:34.712Z,96935.60
2023-09-10T22:44:02.734Z,96938.60
2023-09-10T22:46:30.946Z,96938.80
2023-09-10T22:48:59.001Z,96940.80
2023-09-10T22:51:27.396Z,96940.60
2023-09-10T22:53:55.450Z,96937.80
2023-09-10T22:56:24.677Z,96936.20
2023-09-10T22:58:52.808Z,96933.40
2023-09-10T23:01:22.000Z,96931.80
2023-09-10T23:03:50.468Z,96933.80
2023-09-10T23:06:18.742Z,96933.40
2023-09-10T23:08:46.897Z,96929.60
2023-09-10T23:11:15.117Z,96926.60
2023-09-10T23:13:43.518Z,96921.80
2023-09-10T23:16:11.575Z,96925.60
2023-09-10T23:18:40.172Z,96921.40
2023-09-10T23:21:08.578Z,96920.00
2023-09-10T23:23:38.006Z,96921.80
2023-09-10T23:26:08.026Z,96921.20
2023-09-10T23:28:36.312Z,96917.80
2023-09-10T23:31:04.509Z,96919.60
2023-09-10T23:33:32.887Z,96925.20
2023-09-10T23:36:01.066Z,96922.00
2023-09-10T23:38:29.579Z,96921.80
2023-09-10T23:40:58.671Z,96919.20
2023-09-10T23:43:27.149Z,96919.20
2023-09-10T23:45:55.363Z,96917.60
2023-09-10T23:48:23.727Z,96918.00
2023-09-10T23:50:52.537Z,96913.00
2023-09-10T23:53:20.816Z,96912.60
2023-09-10T23:55:49.162Z,96911.60
2023-09-10T23:58:17.318Z,96914.00
